sensor_id;sensor_type;location;lat;lon;timestamp;temperature;humidity
5172;DHT22;2605;49.770;9.868;2024-01-27T00:01:32;3.50;99.90
5172;DHT22;2605;49.770;9.868;2024-01-27T00:03:57;3.40;99.90
5172;DHT22;2605;49.770;9.868;2024-01-27T00:06:23;3.40;99.90
5172;DHT22;2605;49.770;9.868;2024-01-27T00:08:48;3.40;99.90
5172;DHT22;2605;49.770;9.868;2024-01-27T00:11:14;3.30;99.90
5172;DHT22;2605;49.770;9.868;2024-01-27T00:13:39;3.30;99.90
5172;DHT22;2605;49.770;9.868;2024-01-27T00:16:05;3.30;99.90
5172;DHT22;2605;49.770;9.868;2024-01-27T00:18:31;3.30;99.90
5172;DHT22;2605;49.770;9.868;2024-01-27T00:20:57;3.30;99.90
5172;DHT22;2605;49.770;9.868;2024-01-27T00:23:22;3.20;99.90
5172;DHT22;2605;49.770;9.868;2024-01-27T00:25:48;3.20;99.90
5172;DHT22;2605;49.770;9.868;2024-01-27T00:28:13;3.20;99.90
5172;DHT22;2605;49.770;9.868;2024-01-27T00:30:39;3.20;99.90
5172;DHT22;2605;49.770;9.868;2024-01-27T00:33:04;3.10;99.90
5172;DHT22;2605;49.770;9.868;2024-01-27T00:35:30;3.10;99.90
5172;DHT22;2605;49.770;9.868;2024-01-27T00:37:55;3.10;99.90
5172;DHT22;2605;49.770;9.868;2024-01-27T00:40:22;3.10;99.90
5172;DHT22;2605;49.770;9.868;2024-01-27T00:42:48;3.10;99.90
5172;DHT22;2605;49.770;9.868;2024-01-27T00:45:13;3.10;99.90
5172;DHT22;2605;49.770;9.868;2024-01-27T00:47:38;3.10;99.90
5172;DHT22;2605;49.770;9.868;2024-01-27T00:50:10;3.10;99.90
5172;DHT22;2605;49.770;9.868;2024-01-27T00:52:36;3.00;99.90
5172;DHT22;2605;49.770;9.868;2024-01-27T00:55:02;2.90;99.90
5172;DHT22;2605;49.770;9.868;2024-01-27T00:57:27;3.00;99.90
5172;DHT22;2605;49.770;9.868;2024-01-27T00:59:53;3.00;99.90
5172;DHT22;2605;49.770;9.868;2024-01-27T01:02:18;3.00;99.90
5172;DHT22;2605;49.770;9.868;2024-01-27T01:04:44;2.90;99.90
5172;DHT22;2605;49.770;9.868;2024-01-27T01:07:10;2.90;99.90
5172;DHT22;2605;49.770;9.868;2024-01-27T01:09:36;2.90;99.90
5172;DHT22;2605;49.770;9.868;2024-01-27T01:12:01;2.80;99.90
5172;DHT22;2605;49.770;9.868;2024-01-27T01:14:27;2.80;99.90
5172;DHT22;2605;49.770;9.868;2024-01-27T01:16:53;2.80;99.90
5172;DHT22;2605;49.770;9.868;2024-01-27T01:19:18;2.70;99.90
5172;DHT22;2605;49.770;9.868;2024-01-27T01:21:44;2.80;99.90
5172;DHT22;2605;49.770;9.868;2024-01-27T01:24:09;2.70;99.90
5172;DHT22;2605;49.770;9.868;2024-01-27T01:26:35;2.70;99.90
5172;DHT22;2605;49.770;9.868;2024-01-27T01:29:00;2.60;99.90
5172;DHT22;2605;49.770;9.868;2024-01-27T01:31:26;2.70;99.90
5172;DHT22;2605;49.770;9.868;2024-01-27T01:33:51;2.70;99.90
5172;DHT22;2605;49.770;9.868;2024-01-27T01:36:17;2.70;99.90
5172;DHT22;2605;49.770;9.868;2024-01-27T01:38:42;2.70;99.90
5172;DHT22;2605;49.770;9.868;2024-01-27T01:41:08;2.60;99.90
5172;DHT22;2605;49.770;9.868;2024-01-27T01:43:33;2.70;99.90
5172;DHT22;2605;49.770;9.868;2024-01-27T01:45:59;2.70;99.90
5172;DHT22;2605;49.770;9.868;2024-01-27T01:48:25;2.60;99.90
5172;DHT22;2605;49.770;9.868;2024-01-27T01:50:51;2.60;99.90
5172;DHT22;2605;49.770;9.868;2024-01-27T01:53:17;2.60;99.90
5172;DHT22;2605;49.770;9.868;2024-01-27T01:55:43;2.60;99.90
5172;DHT22;2605;49.770;9.868;2024-01-27T01:58:09;2.60;99.90
5172;DHT22;2605;49.770;9.868;2024-01-27T02:00:34;2.60;99.90
5172;DHT22;2605;49.770;9.868;2024-01-27T02:03:00;2.70;99.90
5172;DHT22;2605;49.770;9.868;2024-01-27T02:05:25;2.60;99.90
5172;DHT22;2605;49.770;9.868;2024-01-27T02:07:51;2.60;99.90
5172;DHT22;2605;49.770;9.868;2024-01-27T02:10:17;2.60;99.90
5172;DHT22;2605;49.770;9.868;2024-01-27T02:12:44;2.60;99.90
5172;DHT22;2605;49.770;9.868;2024-01-27T02:15:11;2.50;99.90
5172;DHT22;2605;49.770;9.868;2024-01-27T02:17:38;2.50;99.90
5172;DHT22;2605;49.770;9.868;2024-01-27T02:20:05;2.40;99.90
5172;DHT22;2605;49.770;9.868;2024-01-27T02:22:34;2.30;99.90
5172;DHT22;2605;49.770;9.868;2024-01-27T02:25:01;2.20;99.90
5172;DHT22;2605;49.770;9.868;2024-01-27T02:27:26;2.20;99.90
5172;DHT22;2605;49.770;9.868;2024-01-27T02:29:52;2.20;99.90
5172;DHT22;2605;49.770;9.868;2024-01-27T02:32:17;2.20;99.90
5172;DHT22;2605;49.770;9.868;2024-01-27T02:34:43;2.20;99.90
5172;DHT22;2605;49.770;9.868;2024-01-27T02:37:09;2.30;99.90
5172;DHT22;2605;49.770;9.868;2024-01-27T02:39:34;2.30;99.90
5172;DHT22;2605;49.770;9.868;2024-01-27T02:42:00;2.30;99.90
5172;DHT22;2605;49.770;9.868;2024-01-27T02:44:26;2.20;99.90
5172;DHT22;2605;49.770;9.868;2024-01-27T02:46:51;2.20;99.90
5172;DHT22;2605;49.770;9.868;2024-01-27T02:49:16;2.20;99.90
5172;DHT22;2605;49.770;9.868;2024-01-27T02:51:42;2.20;99.90
5172;DHT22;2605;49.770;9.868;2024-01-27T02:54:08;2.30;99.90
5172;DHT22;2605;49.770;9.868;2024-01-27T02:56:33;2.30;99.90
5172;DHT22;2605;49.770;9.868;2024-01-27T02:58:58;2.30;99.90
5172;DHT22;2605;49.770;9.868;2024-01-27T03:01:24;2.30;99.90
5172;DHT22;2605;49.770;9.868;2024-01-27T03:03:50;2.30;99.90
5172;DHT22;2605;49.770;9.868;2024-01-27T03:06:15;2.20;99.90
5172;DHT22;2605;49.770;9.868;2024-01-27T03:08:40;2.20;99.90
5172;DHT22;2605;49.770;9.868;2024-01-27T03:11:06;2.10;99.90
5172;DHT22;2605;49.770;9.868;2024-01-27T03:13:32;2.10;99.90
5172;DHT22;2605;49.770;9.868;2024-01-27T03:15:57;2.00;99.90
5172;DHT22;2605;49.770;9.868;2024-01-27T03:18:23;2.00;99.90
5172;DHT22;2605;49.770;9.868;2024-01-27T03:20:49;2.00;99.90
5172;DHT22;2605;49.770;9.868;2024-01-27T03:23:15;1.90;99.90
5172;DHT22;2605;49.770;9.868;2024-01-27T03:25:40;2.00;99.90
5172;DHT22;2605;49.770;9.868;2024-01-27T03:28:06;2.00;99.90
5172;DHT22;2605;49.770;9.868;2024-01-27T03:30:31;1.90;99.90
5172;DHT22;2605;49.770;9.868;2024-01-27T03:33:00;2.00;99.90
5172;DHT22;2605;49.770;9.868;2024-01-27T03:35:25;2.00;99.90
5172;DHT22;2605;49.770;9.868;2024-01-27T03:37:51;2.00;99.90
5172;DHT22;2605;49.770;9.868;2024-01-27T03:40:17;2.00;99.90
5172;DHT22;2605;49.770;9.868;2024-01-27T03:42:43;1.90;99.90
5172;DHT22;2605;49.770;9.868;2024-01-27T03:45:08;1.90;99.90
5172;DHT22;2605;49.770;9.868;2024-01-27T03:47:34;1.90;99.90
5172;DHT22;2605;49.770;9.868;2024-01-27T03:50:00;1.90;99.90
5172;DHT22;2605;49.770;9.868;2024-01-27T03:52:25;2.00;99.90
5172;DHT22;2605;49.770;9.868;2024-01-27T03:54:51;2.00;99.90
5172;DHT22;2605;49.770;9.868;2024-01-27T03:57:16;2.00;99.90
5172;DHT22;2605;49.770;9.868;2024-01-27T03:59:42;2.00;99.90
5172;DHT22;2605;49.770;9.868;2024-01-27T04:02:07;2.00;99.90
5172;DHT22;2605;49.770;9.868;2024-01-27T04:04:36;1.90;99.90
5172;DHT22;2605;49.770;9.868;2024-01-27T04:07:01;1.90;99.90
5172;DHT22;2605;49.770;9.868;2024-01-27T04:09:27;1.90;99.90
5172;DHT22;2605;49.770;9.868;2024-01-27T04:11:53;1.90;99.90
5172;DHT22;2605;49.770;9.868;2024-01-27T04:14:18;1.90;99.90
5172;DHT22;2605;49.770;9.868;2024-01-27T04:16:44;1.90;99.90
5172;DHT22;2605;49.770;9.868;2024-01-27T04:19:09;1.80;99.90
5172;DHT22;2605;49.770;9.868;2024-01-27T04:21:35;1.80;99.90
5172;DHT22;2605;49.770;9.868;2024-01-27T04:24:00;1.80;99.90
5172;DHT22;2605;49.770;9.868;2024-01-27T04:26:26;1.70;99.90
5172;DHT22;2605;49.770;9.868;2024-01-27T04:28:51;1.70;99.90
5172;DHT22;2605;49.770;9.868;2024-01-27T04:31:17;1.70;99.90
5172;DHT22;2605;49.770;9.868;2024-01-27T04:33:42;1.60;99.90
5172;DHT22;2605;49.770;9.868;2024-01-27T04:36:08;1.60;99.90
5172;DHT22;2605;49.770;9.868;2024-01-27T04:38:35;1.70;99.90
5172;DHT22;2605;49.770;9.868;2024-01-27T04:41:01;1.70;99.90
5172;DHT22;2605;49.770;9.868;2024-01-27T04:43:27;1.70;99.90
5172;DHT22;2605;49.770;9.868;2024-01-27T04:45:53;1.70;99.90
5172;DHT22;2605;49.770;9.868;2024-01-27T04:48:19;1.70;99.90
5172;DHT22;2605;49.770;9.868;2024-01-27T04:50:44;1.70;99.90
5172;DHT22;2605;49.770;9.868;2024-01-27T04:53:10;1.70;99.90
5172;DHT22;2605;49.770;9.868;2024-01-27T04:55:35;1.70;99.90
5172;DHT22;2605;49.770;9.868;2024-01-27T04:58:01;1.70;99.90
5172;DHT22;2605;49.770;9.868;2024-01-27T05:00:26;1.70;99.90
5172;DHT22;2605;49.770;9.868;2024-01-27T05:02:53;1.70;99.90
5172;DHT22;2605;49.770;9.868;2024-01-27T05:05:19;1.80;99.90
5172;DHT22;2605;49.770;9.868;2024-01-27T05:07:44;1.80;99.90
5172;DHT22;2605;49.770;9.868;2024-01-27T05:10:10;1.90;99.90
5172;DHT22;2605;49.770;9.868;2024-01-27T05:12:37;1.90;99.90
5172;DHT22;2605;49.770;9.868;2024-01-27T05:15:03;1.80;99.90
5172;DHT22;2605;49.770;9.868;2024-01-27T05:17:28;1.80;99.90
5172;DHT22;2605;49.770;9.868;2024-01-27T05:19:53;1.80;99.90
5172;DHT22;2605;49.770;9.868;2024-01-27T05:22:19;1.80;99.90
5172;DHT22;2605;49.770;9.868;2024-01-27T05:24:44;1.70;99.90
5172;DHT22;2605;49.770;9.868;2024-01-27T05:27:10;1.70;99.90
5172;DHT22;2605;49.770;9.868;2024-01-27T05:29:39;1.60;99.90
5172;DHT22;2605;49.770;9.868;2024-01-27T05:32:04;1.60;99.90
5172;DHT22;2605;49.770;9.868;2024-01-27T05:34:30;1.60;99.90
5172;DHT22;2605;49.770;9.868;2024-01-27T05:36:55;1.60;99.90
5172;DHT22;2605;49.770;9.868;2024-01-27T05:39:21;1.50;99.90
5172;DHT22;2605;49.770;9.868;2024-01-27T05:41:46;1.50;99.90
5172;DHT22;2605;49.770;9.868;2024-01-27T05:44:12;1.40;99.90
5172;DHT22;2605;49.770;9.868;2024-01-27T05:46:37;1.40;99.90
5172;DHT22;2605;49.770;9.868;2024-01-27T05:49:06;1.30;99.90
5172;DHT22;2605;49.770;9.868;2024-01-27T05:51:31;1.30;99.90
5172;DHT22;2605;49.770;9.868;2024-01-27T05:53:57;1.30;99.90
5172;DHT22;2605;49.770;9.868;2024-01-27T05:56:22;1.30;99.90
5172;DHT22;2605;49.770;9.868;2024-01-27T05:58:48;1.30;99.90
5172;DHT22;2605;49.770;9.868;2024-01-27T06:01:14;1.30;99.90
5172;DHT22;2605;49.770;9.868;2024-01-27T06:03:43;1.20;99.90
5172;DHT22;2605;49.770;9.868;2024-01-27T06:06:09;1.20;99.90
5172;DHT22;2605;49.770;9.868;2024-01-27T06:08:35;1.20;99.90
5172;DHT22;2605;49.770;9.868;2024-01-27T06:11:00;1.10;99.90
5172;DHT22;2605;49.770;9.868;2024-01-27T06:13:26;1.10;99.90
5172;DHT22;2605;49.770;9.868;2024-01-27T06:15:51;1.00;99.90
5172;DHT22;2605;49.770;9.868;2024-01-27T06:18:17;1.00;99.90
5172;DHT22;2605;49.770;9.868;2024-01-27T06:20:44;1.00;99.90
5172;DHT22;2605;49.770;9.868;2024-01-27T06:23:10;1.00;99.90
5172;DHT22;2605;49.770;9.868;2024-01-27T06:25:35;0.90;99.90
5172;DHT22;2605;49.770;9.868;2024-01-27T06:28:01;0.90;99.90
5172;DHT22;2605;49.770;9.868;2024-01-27T06:30:26;0.90;99.90
5172;DHT22;2605;49.770;9.868;2024-01-27T06:32:52;0.90;99.90
5172;DHT22;2605;49.770;9.868;2024-01-27T06:35:17;0.90;99.90
5172;DHT22;2605;49.770;9.868;2024-01-27T06:37:43;0.90;99.90
5172;DHT22;2605;49.770;9.868;2024-01-27T06:40:08;0.80;99.90
5172;DHT22;2605;49.770;9.868;2024-01-27T06:42:35;0.80;99.90
5172;DHT22;2605;49.770;9.868;2024-01-27T06:45:00;0.80;99.90
5172;DHT22;2605;49.770;9.868;2024-01-27T06:47:26;0.70;99.90
5172;DHT22;2605;49.770;9.868;2024-01-27T06:49:51;0.70;99.90
5172;DHT22;2605;49.770;9.868;2024-01-27T06:52:17;0.70;99.90
5172;DHT22;2605;49.770;9.868;2024-01-27T06:54:42;0.80;99.90
5172;DHT22;2605;49.770;9.868;2024-01-27T06:57:20;0.80;99.90
5172;DHT22;2605;49.770;9.868;2024-01-27T06:59:51;0.70;99.90
5172;DHT22;2605;49.770;9.868;2024-01-27T07:02:25;0.70;99.90
5172;DHT22;2605;49.770;9.868;2024-01-27T07:04:52;0.80;99.90
5172;DHT22;2605;49.770;9.868;2024-01-27T07:07:19;0.70;99.90
5172;DHT22;2605;49.770;9.868;2024-01-27T07:09:47;0.70;99.90
5172;DHT22;2605;49.770;9.868;2024-01-27T07:12:12;0.80;99.90
5172;DHT22;2605;49.770;9.868;2024-01-27T07:14:38;0.80;99.90
5172;DHT22;2605;49.770;9.868;2024-01-27T07:17:04;0.80;99.90
5172;DHT22;2605;49.770;9.868;2024-01-27T07:19:30;0.80;99.90
5172;DHT22;2605;49.770;9.868;2024-01-27T07:21:56;0.80;99.90
5172;DHT22;2605;49.770;9.868;2024-01-27T07:24:21;0.80;99.90
5172;DHT22;2605;49.770;9.868;2024-01-27T07:26:47;0.80;99.90
5172;DHT22;2605;49.770;9.868;2024-01-27T07:29:12;0.80;99.90
5172;DHT22;2605;49.770;9.868;2024-01-27T07:31:38;0.70;99.90
5172;DHT22;2605;49.770;9.868;2024-01-27T07:34:04;0.60;99.90
5172;DHT22;2605;49.770;9.868;2024-01-27T07:36:31;0.60;99.90
5172;DHT22;2605;49.770;9.868;2024-01-27T07:38:58;0.50;99.90
5172;DHT22;2605;49.770;9.868;2024-01-27T07:41:26;0.50;99.90
5172;DHT22;2605;49.770;9.868;2024-01-27T07:43:53;0.50;99.90
5172;DHT22;2605;49.770;9.868;2024-01-27T07:46:19;0.50;99.90
5172;DHT22;2605;49.770;9.868;2024-01-27T07:48:50;0.50;99.90
5172;DHT22;2605;49.770;9.868;2024-01-27T07:51:16;0.50;99.90
5172;DHT22;2605;49.770;9.868;2024-01-27T07:53:41;0.60;99.90
5172;DHT22;2605;49.770;9.868;2024-01-27T07:56:07;0.80;99.90
5172;DHT22;2605;49.770;9.868;2024-01-27T07:58:33;0.90;99.90
5172;DHT22;2605;49.770;9.868;2024-01-27T08:00:59;1.00;99.90
5172;DHT22;2605;49.770;9.868;2024-01-27T08:03:24;1.10;99.90
5172;DHT22;2605;49.770;9.868;2024-01-27T08:05:50;1.20;99.90
5172;DHT22;2605;49.770;9.868;2024-01-27T08:08:18;1.30;99.90
5172;DHT22;2605;49.770;9.868;2024-01-27T08:10:44;1.30;99.90
5172;DHT22;2605;49.770;9.868;2024-01-27T08:13:10;1.30;99.90
5172;DHT22;2605;49.770;9.868;2024-01-27T08:15:36;1.40;99.90
5172;DHT22;2605;49.770;9.868;2024-01-27T08:18:01;1.40;99.90
5172;DHT22;2605;49.770;9.868;2024-01-27T08:20:27;1.40;99.90
5172;DHT22;2605;49.770;9.868;2024-01-27T08:22:52;1.40;99.90
5172;DHT22;2605;49.770;9.868;2024-01-27T08:25:18;1.50;99.90
5172;DHT22;2605;49.770;9.868;2024-01-27T08:27:43;1.50;99.90
5172;DHT22;2605;49.770;9.868;2024-01-27T08:30:09;1.50;99.90
5172;DHT22;2605;49.770;9.868;2024-01-27T08:32:35;1.50;99.90
5172;DHT22;2605;49.770;9.868;2024-01-27T08:35:01;1.50;99.90
5172;DHT22;2605;49.770;9.868;2024-01-27T08:37:27;1.60;99.90
5172;DHT22;2605;49.770;9.868;2024-01-27T08:39:52;1.60;99.90
5172;DHT22;2605;49.770;9.868;2024-01-27T08:42:18;1.70;99.90
5172;DHT22;2605;49.770;9.868;2024-01-27T08:44:43;1.70;99.90
5172;DHT22;2605;49.770;9.868;2024-01-27T08:47:09;1.80;99.90
5172;DHT22;2605;49.770;9.868;2024-01-27T08:49:34;1.90;99.90
5172;DHT22;2605;49.770;9.868;2024-01-27T08:52:00;2.00;99.90
5172;DHT22;2605;49.770;9.868;2024-01-27T08:54:25;2.00;99.90
5172;DHT22;2605;49.770;9.868;2024-01-27T08:56:51;2.00;99.90
5172;DHT22;2605;49.770;9.868;2024-01-27T08:59:17;2.10;99.90
5172;DHT22;2605;49.770;9.868;2024-01-27T09:01:42;2.20;99.90
5172;DHT22;2605;49.770;9.868;2024-01-27T09:04:08;2.30;99.90
5172;DHT22;2605;49.770;9.868;2024-01-27T09:06:34;2.30;99.90
5172;DHT22;2605;49.770;9.868;2024-01-27T09:09:00;2.40;99.90
5172;DHT22;2605;49.770;9.868;2024-01-27T09:11:26;2.40;99.90
5172;DHT22;2605;49.770;9.868;2024-01-27T09:13:55;2.50;99.90
5172;DHT22;2605;49.770;9.868;2024-01-27T09:16:21;2.50;99.90
5172;DHT22;2605;49.770;9.868;2024-01-27T09:18:46;2.50;99.90
5172;DHT22;2605;49.770;9.868;2024-01-27T09:21:12;2.60;99.90
5172;DHT22;2605;49.770;9.868;2024-01-27T09:23:40;2.60;99.90
5172;DHT22;2605;49.770;9.868;2024-01-27T09:26:05;2.70;99.90
5172;DHT22;2605;49.770;9.868;2024-01-27T09:28:31;2.70;99.90
5172;DHT22;2605;49.770;9.868;2024-01-27T09:30:56;2.70;99.90
5172;DHT22;2605;49.770;9.868;2024-01-27T09:33:22;2.80;99.90
5172;DHT22;2605;49.770;9.868;2024-01-27T09:35:49;2.90;99.90
5172;DHT22;2605;49.770;9.868;2024-01-27T09:38:14;3.00;99.90
5172;DHT22;2605;49.770;9.868;2024-01-27T09:40:40;3.00;99.90
5172;DHT22;2605;49.770;9.868;2024-01-27T09:43:12;3.10;99.90
5172;DHT22;2605;49.770;9.868;2024-01-27T09:45:38;3.10;99.90
5172;DHT22;2605;49.770;9.868;2024-01-27T09:48:05;3.30;99.90
5172;DHT22;2605;49.770;9.868;2024-01-27T09:50:34;3.30;99.90
5172;DHT22;2605;49.770;9.868;2024-01-27T09:53:00;3.30;99.90
5172;DHT22;2605;49.770;9.868;2024-01-27T09:55:26;3.40;99.90
5172;DHT22;2605;49.770;9.868;2024-01-27T09:57:52;3.40;99.90
5172;DHT22;2605;49.770;9.868;2024-01-27T10:00:18;3.50;99.90
5172;DHT22;2605;49.770;9.868;2024-01-27T10:02:46;3.50;99.90
5172;DHT22;2605;49.770;9.868;2024-01-27T10:05:13;3.50;99.90
5172;DHT22;2605;49.770;9.868;2024-01-27T10:07:39;3.60;99.90
5172;DHT22;2605;49.770;9.868;2024-01-27T10:10:08;3.60;99.90
5172;DHT22;2605;49.770;9.868;2024-01-27T10:12:41;3.60;99.90
5172;DHT22;2605;49.770;9.868;2024-01-27T10:15:22;3.50;99.90
5172;DHT22;2605;49.770;9.868;2024-01-27T10:17:51;3.40;99.90
5172;DHT22;2605;49.770;9.868;2024-01-27T10:20:16;3.40;99.90
5172;DHT22;2605;49.770;9.868;2024-01-27T10:22:44;3.40;99.90
5172;DHT22;2605;49.770;9.868;2024-01-27T10:25:11;3.40;99.90
5172;DHT22;2605;49.770;9.868;2024-01-27T10:27:37;3.40;99.90
5172;DHT22;2605;49.770;9.868;2024-01-27T10:30:04;3.50;99.90
5172;DHT22;2605;49.770;9.868;2024-01-27T10:32:30;3.50;99.90
5172;DHT22;2605;49.770;9.868;2024-01-27T10:35:03;3.50;99.90
5172;DHT22;2605;49.770;9.868;2024-01-27T10:37:28;3.60;99.90
5172;DHT22;2605;49.770;9.868;2024-01-27T10:40:07;3.80;99.90
5172;DHT22;2605;49.770;9.868;2024-01-27T10:42:38;3.70;99.90
5172;DHT22;2605;49.770;9.868;2024-01-27T10:45:05;3.80;99.90
5172;DHT22;2605;49.770;9.868;2024-01-27T10:47:32;3.90;99.90
5172;DHT22;2605;49.770;9.868;2024-01-27T10:49:59;3.90;99.90
5172;DHT22;2605;49.770;9.868;2024-01-27T10:52:28;3.90;99.90
5172;DHT22;2605;49.770;9.868;2024-01-27T10:54:58;4.10;99.90
5172;DHT22;2605;49.770;9.868;2024-01-27T10:57:29;4.20;99.90
5172;DHT22;2605;49.770;9.868;2024-01-27T10:59:56;4.20;99.90
5172;DHT22;2605;49.770;9.868;2024-01-27T11:02:22;4.30;99.90
5172;DHT22;2605;49.770;9.868;2024-01-27T11:04:48;4.40;99.90
5172;DHT22;2605;49.770;9.868;2024-01-27T11:07:16;4.40;99.90
5172;DHT22;2605;49.770;9.868;2024-01-27T11:09:42;4.30;99.90
5172;DHT22;2605;49.770;9.868;2024-01-27T11:12:08;4.30;99.90
5172;DHT22;2605;49.770;9.868;2024-01-27T11:14:35;4.30;99.90
5172;DHT22;2605;49.770;9.868;2024-01-27T11:17:01;4.40;99.90
5172;DHT22;2605;49.770;9.868;2024-01-27T11:19:27;4.40;99.90
5172;DHT22;2605;49.770;9.868;2024-01-27T11:22:05;4.50;99.90
5172;DHT22;2605;49.770;9.868;2024-01-27T11:24:31;4.50;99.90
5172;DHT22;2605;49.770;9.868;2024-01-27T11:27:04;4.60;99.90
5172;DHT22;2605;49.770;9.868;2024-01-27T11:29:30;4.70;99.90
5172;DHT22;2605;49.770;9.868;2024-01-27T11:31:59;4.80;99.90
5172;DHT22;2605;49.770;9.868;2024-01-27T11:34:25;4.70;99.90
5172;DHT22;2605;49.770;9.868;2024-01-27T11:36:50;4.70;99.90
5172;DHT22;2605;49.770;9.868;2024-01-27T11:39:31;4.70;99.90
5172;DHT22;2605;49.770;9.868;2024-01-27T11:42:10;4.80;99.90
5172;DHT22;2605;49.770;9.868;2024-01-27T11:44:39;5.00;99.90
5172;DHT22;2605;49.770;9.868;2024-01-27T11:47:07;5.00;99.90
5172;DHT22;2605;49.770;9.868;2024-01-27T11:49:38;5.20;99.90
5172;DHT22;2605;49.770;9.868;2024-01-27T11:52:06;5.30;99.90
5172;DHT22;2605;49.770;9.868;2024-01-27T11:54:32;5.30;99.90
5172;DHT22;2605;49.770;9.868;2024-01-27T11:56:57;5.40;99.90
5172;DHT22;2605;49.770;9.868;2024-01-27T11:59:23;5.50;99.90
5172;DHT22;2605;49.770;9.868;2024-01-27T12:01:49;5.70;99.90
5172;DHT22;2605;49.770;9.868;2024-01-27T12:04:15;5.80;99.90
5172;DHT22;2605;49.770;9.868;2024-01-27T12:06:42;5.90;99.90
5172;DHT22;2605;49.770;9.868;2024-01-27T12:09:09;6.10;99.90
5172;DHT22;2605;49.770;9.868;2024-01-27T12:11:38;5.90;99.90
5172;DHT22;2605;49.770;9.868;2024-01-27T12:14:07;5.90;99.90
5172;DHT22;2605;49.770;9.868;2024-01-27T12:16:32;5.90;99.90
5172;DHT22;2605;49.770;9.868;2024-01-27T12:18:58;5.90;99.90
5172;DHT22;2605;49.770;9.868;2024-01-27T12:21:24;5.90;99.90
5172;DHT22;2605;49.770;9.868;2024-01-27T12:23:54;6.10;99.90
5172;DHT22;2605;49.770;9.868;2024-01-27T12:26:25;6.10;99.90
5172;DHT22;2605;49.770;9.868;2024-01-27T12:28:50;6.10;99.90
5172;DHT22;2605;49.770;9.868;2024-01-27T12:31:16;6.00;99.90
5172;DHT22;2605;49.770;9.868;2024-01-27T12:33:50;6.10;99.90
5172;DHT22;2605;49.770;9.868;2024-01-27T12:36:18;6.10;99.90
5172;DHT22;2605;49.770;9.868;2024-01-27T12:38:47;6.10;99.90
5172;DHT22;2605;49.770;9.868;2024-01-27T12:41:13;6.10;99.90
5172;DHT22;2605;49.770;9.868;2024-01-27T12:43:38;6.10;99.90
5172;DHT22;2605;49.770;9.868;2024-01-27T12:46:03;6.00;99.90
5172;DHT22;2605;49.770;9.868;2024-01-27T12:48:30;6.00;99.90
5172;DHT22;2605;49.770;9.868;2024-01-27T12:50:59;6.10;99.90
5172;DHT22;2605;49.770;9.868;2024-01-27T12:53:25;6.20;99.90
5172;DHT22;2605;49.770;9.868;2024-01-27T12:55:51;6.30;99.90
5172;DHT22;2605;49.770;9.868;2024-01-27T12:58:17;6.30;99.90
5172;DHT22;2605;49.770;9.868;2024-01-27T13:00:42;6.30;99.90
5172;DHT22;2605;49.770;9.868;2024-01-27T13:03:08;6.30;99.90
5172;DHT22;2605;49.770;9.868;2024-01-27T13:05:33;6.30;99.90
5172;DHT22;2605;49.770;9.868;2024-01-27T13:08:02;6.20;99.90
5172;DHT22;2605;49.770;9.868;2024-01-27T13:10:29;6.20;99.90
5172;DHT22;2605;49.770;9.868;2024-01-27T13:12:55;6.20;99.90
5172;DHT22;2605;49.770;9.868;2024-01-27T13:15:20;6.30;99.90
5172;DHT22;2605;49.770;9.868;2024-01-27T13:17:48;6.30;99.90
5172;DHT22;2605;49.770;9.868;2024-01-27T13:20:13;6.40;99.90
5172;DHT22;2605;49.770;9.868;2024-01-27T13:22:39;6.60;99.90
5172;DHT22;2605;49.770;9.868;2024-01-27T13:25:05;6.70;99.90
5172;DHT22;2605;49.770;9.868;2024-01-27T13:27:31;6.80;99.90
5172;DHT22;2605;49.770;9.868;2024-01-27T13:29:56;6.80;99.90
5172;DHT22;2605;49.770;9.868;2024-01-27T13:32:22;6.70;99.90
5172;DHT22;2605;49.770;9.868;2024-01-27T13:34:47;6.80;99.90
5172;DHT22;2605;49.770;9.868;2024-01-27T13:37:13;6.70;99.90
5172;DHT22;2605;49.770;9.868;2024-01-27T13:39:41;6.80;99.90
5172;DHT22;2605;49.770;9.868;2024-01-27T13:42:10;6.90;99.90
5172;DHT22;2605;49.770;9.868;2024-01-27T13:44:38;7.10;99.90
5172;DHT22;2605;49.770;9.868;2024-01-27T13:47:07;7.20;99.90
5172;DHT22;2605;49.770;9.868;2024-01-27T13:49:34;7.30;99.90
5172;DHT22;2605;49.770;9.868;2024-01-27T13:52:00;7.30;99.90
5172;DHT22;2605;49.770;9.868;2024-01-27T13:54:26;7.40;99.90
5172;DHT22;2605;49.770;9.868;2024-01-27T13:56:51;7.30;99.90
5172;DHT22;2605;49.770;9.868;2024-01-27T13:59:17;7.20;99.90
5172;DHT22;2605;49.770;9.868;2024-01-27T14:01:42;7.20;99.90
5172;DHT22;2605;49.770;9.868;2024-01-27T14:04:08;7.10;99.90
5172;DHT22;2605;49.770;9.868;2024-01-27T14:06:34;7.10;99.90
5172;DHT22;2605;49.770;9.868;2024-01-27T14:09:00;7.20;99.90
5172;DHT22;2605;49.770;9.868;2024-01-27T14:11:28;7.10;99.90
5172;DHT22;2605;49.770;9.868;2024-01-27T14:13:53;6.90;99.90
5172;DHT22;2605;49.770;9.868;2024-01-27T14:16:19;6.80;99.90
5172;DHT22;2605;49.770;9.868;2024-01-27T14:18:45;6.70;99.90
5172;DHT22;2605;49.770;9.868;2024-01-27T14:21:11;6.60;99.90
5172;DHT22;2605;49.770;9.868;2024-01-27T14:23:36;6.60;99.90
5172;DHT22;2605;49.770;9.868;2024-01-27T14:26:03;6.70;99.90
5172;DHT22;2605;49.770;9.868;2024-01-27T14:28:29;6.70;99.90
5172;DHT22;2605;49.770;9.868;2024-01-27T14:30:54;6.70;99.90
5172;DHT22;2605;49.770;9.868;2024-01-27T14:33:20;6.70;99.90
5172;DHT22;2605;49.770;9.868;2024-01-27T14:35:46;6.60;99.90
5172;DHT22;2605;49.770;9.868;2024-01-27T14:38:13;6.60;99.90
5172;DHT22;2605;49.770;9.868;2024-01-27T14:40:38;6.60;99.90
5172;DHT22;2605;49.770;9.868;2024-01-27T14:43:04;6.60;99.90
5172;DHT22;2605;49.770;9.868;2024-01-27T14:45:36;6.80;99.90
5172;DHT22;2605;49.770;9.868;2024-01-27T14:48:02;8.60;99.90
5172;DHT22;2605;49.770;9.868;2024-01-27T14:50:28;9.70;99.90
5172;DHT22;2605;49.770;9.868;2024-01-27T14:52:54;11.10;99.90
5172;DHT22;2605;49.770;9.868;2024-01-27T14:55:19;11.90;99.90
5172;DHT22;2605;49.770;9.868;2024-01-27T14:57:45;12.40;99.90
5172;DHT22;2605;49.770;9.868;2024-01-27T15:00:14;13.30;99.90
5172;DHT22;2605;49.770;9.868;2024-01-27T15:02:40;14.30;99.90
5172;DHT22;2605;49.770;9.868;2024-01-27T15:05:05;15.20;99.90
5172;DHT22;2605;49.770;9.868;2024-01-27T15:07:34;16.60;99.90
5172;DHT22;2605;49.770;9.868;2024-01-27T15:09:59;17.00;99.90
5172;DHT22;2605;49.770;9.868;2024-01-27T15:12:25;17.90;99.90
5172;DHT22;2605;49.770;9.868;2024-01-27T15:14:53;18.40;99.90
5172;DHT22;2605;49.770;9.868;2024-01-27T15:17:22;19.20;99.90
5172;DHT22;2605;49.770;9.868;2024-01-27T15:19:49;19.30;99.90
5172;DHT22;2605;49.770;9.868;2024-01-27T15:22:17;18.90;99.90
5172;DHT22;2605;49.770;9.868;2024-01-27T15:24:42;18.60;99.90
5172;DHT22;2605;49.770;9.868;2024-01-27T15:27:08;17.80;99.90
5172;DHT22;2605;49.770;9.868;2024-01-27T15:29:33;17.40;99.90
5172;DHT22;2605;49.770;9.868;2024-01-27T15:31:59;17.00;99.90
5172;DHT22;2605;49.770;9.868;2024-01-27T15:34:24;16.40;99.90
5172;DHT22;2605;49.770;9.868;2024-01-27T15:36:50;16.30;99.90
5172;DHT22;2605;49.770;9.868;2024-01-27T15:39:15;15.60;99.90
5172;DHT22;2605;49.770;9.868;2024-01-27T15:41:41;14.30;99.90
5172;DHT22;2605;49.770;9.868;2024-01-27T15:44:06;13.20;99.90
5172;DHT22;2605;49.770;9.868;2024-01-27T15:46:32;12.40;99.90
5172;DHT22;2605;49.770;9.868;2024-01-27T15:48:58;11.60;99.90
5172;DHT22;2605;49.770;9.868;2024-01-27T15:51:23;10.90;99.90
5172;DHT22;2605;49.770;9.868;2024-01-27T15:53:49;10.40;99.90
5172;DHT22;2605;49.770;9.868;2024-01-27T15:56:14;9.80;99.90
5172;DHT22;2605;49.770;9.868;2024-01-27T15:58:40;9.00;99.90
5172;DHT22;2605;49.770;9.868;2024-01-27T16:01:05;8.30;99.90
5172;DHT22;2605;49.770;9.868;2024-01-27T16:03:31;7.90;99.90
5172;DHT22;2605;49.770;9.868;2024-01-27T16:05:56;7.50;99.90
5172;DHT22;2605;49.770;9.868;2024-01-27T16:08:22;7.10;99.90
5172;DHT22;2605;49.770;9.868;2024-01-27T16:10:48;6.80;99.90